Eizo Maru — JD2944 — position and weather

sailwx.info

Track history (hours):
 
Tides and Currents Weather Stations Pressure Air Temp Water Temp Dewpoint Dewpoint Depression Visibility Wind Speed Wind Dir Waves Ship Positions

Eizo Maru

Last reported at 2017-Nov-15 10:58 UTC. Time now 2017-Nov-24 18:38 UTC.
Position N 34°53' E 139°46'.
Warning: this ship's position is 9 days out of date.

Length 80 m; draft 5.3 m.

Type: Tanker. MMSI: 431000976.

Date/timePositionNaut miles runAvg speedWind from/ knotsBaromVisibWave heightAir tempDewpointWater temp
2017-Nov-15 10:58N 34°53' E 139°46'612.8
2017-Nov-15 10:30N 34°58' E 139°43'612.7
2017-Nov-15 10:01N 35°04' E 139°44'713.1
2017-Nov-15 09:31N 35°11' E 139°46'612.7
2017-Nov-15 09:00N 35°17' E 139°45'612.6
2017-Nov-15 08:30N 35°23' E 139°42'713.2
2017-Nov-15 08:00N 35°28' E 139°47'2 3.3
2017-Nov-15 07:30N 35°29' E 139°49'0 0.0
2017-Nov-15 07:00N 35°29' E 139°49'0 0.0
2017-Nov-15 06:30N 35°29' E 139°49'0 0.0
2017-Nov-15 06:01N 35°29' E 139°49'3 5.1
2017-Nov-15 05:30N 35°31' E 139°46'0 0.0
2017-Nov-14 22:11N 35°31' E 139°46'0 0.3
2017-Nov-14 22:00N 35°31' E 139°46'3 4.7
2017-Nov-14 21:26N 35°29' E 139°49'0 0.0
2017-Nov-14 19:46N 35°29' E 139°49'0 0.0
2017-Nov-14 19:22N 35°29' E 139°49'0 0.0
2017-Nov-14 17:58N 35°29' E 139°49'0 0.0
2017-Nov-14 17:28N 35°29' E 139°49'2 4.5
2017-Nov-14 17:01N 35°27' E 139°47'713.2
2017-Nov-14 16:30N 35°21' E 139°45'611.9
2017-Nov-14 16:00N 35°15' E 139°47'713.1
2017-Nov-14 15:30N 35°08' E 139°46'612.8
2017-Nov-14 15:00N 35°03' E 139°42'713.4
2017-Nov-14 14:31N 34°59' E 139°36'  
2017-Nov-12 07:14N 35°04' E 139°33'313.0
2017-Nov-12 07:00N 35°05' E 139°37'612.7
2017-Nov-12 06:30N 35°09' E 139°43'612.7
2017-Nov-12 06:00N 35°15' E 139°46'612.6
2017-Nov-12 05:30N 35°20' E 139°42'612.5
2017-Nov-12 05:00N 35°26' E 139°45'713.6
2017-Nov-12 04:30N 35°30' E 139°52'2 0.1
2017-Nov-11 01:54N 35°28' E 139°52'513.4
2017-Nov-11 01:30N 35°25' E 139°47'612.6
2017-Nov-11 01:00N 35°19' E 139°44'612.0
2017-Nov-11 00:30N 35°14' E 139°47'713.5
2017-Nov-11 00:00N 35°07' E 139°46'713.5
2017-Nov-10 23:30N 35°01' E 139°43'  
Track history (hours):
 
Tides and Currents Weather Stations Pressure Air Temp Water Temp Dewpoint Dewpoint Depression Visibility Wind Speed Wind Dir Waves Ship Positions

Eizo Maru

Last reported at 2017-Nov-15 10:58 UTC. Time now 2017-Nov-24 18:38 UTC.
Position N 34°53' E 139°46'.
Warning: this ship's position is 9 days out of date.

Length 80 m; draft 5.3 m.

Type: Tanker. MMSI: 431000976.

Date/timePositionNaut miles runAvg speedWind from/ knotsBaromVisibWave heightAir tempDewpointWater temp
2017-Nov-15 10:58N 34°53' E 139°46'612.8
2017-Nov-15 10:30N 34°58' E 139°43'612.7
2017-Nov-15 10:01N 35°04' E 139°44'713.1
2017-Nov-15 09:31N 35°11' E 139°46'612.7
2017-Nov-15 09:00N 35°17' E 139°45'612.6
2017-Nov-15 08:30N 35°23' E 139°42'713.2
2017-Nov-15 08:00N 35°28' E 139°47'2 3.3
2017-Nov-15 07:30N 35°29' E 139°49'0 0.0
2017-Nov-15 07:00N 35°29' E 139°49'0 0.0
2017-Nov-15 06:30N 35°29' E 139°49'0 0.0
2017-Nov-15 06:01N 35°29' E 139°49'3 5.1
2017-Nov-15 05:30N 35°31' E 139°46'0 0.0
2017-Nov-14 22:11N 35°31' E 139°46'0 0.3
2017-Nov-14 22:00N 35°31' E 139°46'3 4.7
2017-Nov-14 21:26N 35°29' E 139°49'0 0.0
2017-Nov-14 19:46N 35°29' E 139°49'0 0.0
2017-Nov-14 19:22N 35°29' E 139°49'0 0.0
2017-Nov-14 17:58N 35°29' E 139°49'0 0.0
2017-Nov-14 17:28N 35°29' E 139°49'2 4.5
2017-Nov-14 17:01N 35°27' E 139°47'713.2
2017-Nov-14 16:30N 35°21' E 139°45'611.9
2017-Nov-14 16:00N 35°15' E 139°47'713.1
2017-Nov-14 15:30N 35°08' E 139°46'612.8
2017-Nov-14 15:00N 35°03' E 139°42'713.4
2017-Nov-14 14:31N 34°59' E 139°36'  
2017-Nov-12 07:14N 35°04' E 139°33'313.0
2017-Nov-12 07:00N 35°05' E 139°37'612.7
2017-Nov-12 06:30N 35°09' E 139°43'612.7
2017-Nov-12 06:00N 35°15' E 139°46'612.6
2017-Nov-12 05:30N 35°20' E 139°42'612.5
2017-Nov-12 05:00N 35°26' E 139°45'713.6
2017-Nov-12 04:30N 35°30' E 139°52'2 0.1
2017-Nov-11 01:54N 35°28' E 139°52'513.4
2017-Nov-11 01:30N 35°25' E 139°47'612.6
2017-Nov-11 01:00N 35°19' E 139°44'612.0
2017-Nov-11 00:30N 35°14' E 139°47'713.5
2017-Nov-11 00:00N 35°07' E 139°46'713.5
2017-Nov-10 23:30N 35°01' E 139°43'  

Dump ship's entire track history